Time;durP1;ratioP1;P1;durP2;ratioP2;P2;SDS_P1;SDS_P2;PMS_P1;PMS_P2;Temp;Humidity;BMP_temperature;BMP_pressure;BME280_temperature;BME280_humidity;BME280_pressure;Samples;Min_cycle;Max_cycle;Signal;HPM_P1;HPM_P2
2023/05/28 00:01:19;;;;;;;11.10;9.90;;;;;;;13.65;100.00;95431.34;4920992;29;20044;-81
2023/05/28 00:03:44;;;;;;;9.25;7.97;;;;;;;13.77;100.00;95466.41;4921278;29;20023;-81
2023/05/28 00:06:10;;;;;;;8.10;7.40;;;;;;;13.88;100.00;95471.16;4894230;29;20126;-81
2023/05/28 00:08:35;;;;;;;10.52;8.73;;;;;;;13.87;100.00;95461.72;4907980;29;20091;-80
2023/05/28 00:11:01;;;;;;;8.70;7.75;;;;;;;13.88;100.00;95449.53;4911011;29;20031;-81
2023/05/28 00:13:29;;;;;;;9.68;8.10;;;;;;;13.92;100.00;95441.19;4896383;29;20031;-82
2023/05/28 00:15:55;;;;;;;9.00;8.30;;;;;;;13.98;100.00;95444.88;4888601;29;20111;-85
2023/05/28 00:18:21;;;;;;;10.32;9.40;;;;;;;13.91;100.00;95439.56;4887241;29;20028;-81
2023/05/28 00:20:48;;;;;;;10.13;9.00;;;;;;;13.94;100.00;95449.63;4888093;29;20035;-85
2023/05/28 00:23:14;;;;;;;10.13;9.07;;;;;;;13.94;100.00;95454.81;4872549;29;20032;-84
2023/05/28 00:25:40;;;;;;;9.23;8.43;;;;;;;13.87;100.00;95440.13;4907017;29;20044;-83
2023/05/28 00:28:05;;;;;;;8.65;7.78;;;;;;;13.93;100.00;95442.81;4873547;29;20422;-83
2023/05/28 00:30:31;;;;;;;8.50;7.68;;;;;;;13.98;100.00;95445.69;4887245;29;20052;-83
2023/05/28 00:32:56;;;;;;;11.05;10.15;;;;;;;13.83;100.00;95434.44;4891582;29;20091;-80
2023/05/28 00:35:22;;;;;;;10.73;9.63;;;;;;;13.65;100.00;95437.38;4905212;29;20048;-80
2023/05/28 00:37:47;;;;;;;9.20;8.40;;;;;;;13.75;100.00;95444.94;4884786;29;20052;-81
2023/05/28 00:40:16;;;;;;;8.98;8.38;;;;;;;13.83;100.00;95431.03;4934986;29;20020;-84
2023/05/28 00:42:42;;;;;;;9.90;9.00;;;;;;;13.77;100.00;95437.78;4907658;29;20096;-82
2023/05/28 00:45:07;;;;;;;9.85;9.02;;;;;;;13.84;100.00;95458.69;4906052;29;20074;-82
2023/05/28 00:47:33;;;;;;;11.20;9.40;;;;;;;13.73;100.00;95447.72;4919005;29;20073;-84
2023/05/28 00:50:00;;;;;;;9.32;8.35;;;;;;;13.64;100.00;95437.56;4903467;29;20702;-84
2023/05/28 00:52:26;;;;;;;9.82;8.88;;;;;;;13.82;100.00;95458.84;4893444;29;20043;-82
2023/05/28 00:54:55;;;;;;;9.35;8.65;;;;;;;13.70;100.00;95432.47;4897258;29;20812;-81
2023/05/28 00:57:46;;;;;;;9.67;8.87;;;;;;;13.85;100.00;95436.84;4892306;29;20036;-83
2023/05/28 01:00:13;;;;;;;11.65;9.85;;;;;;;13.78;100.00;95423.75;4925178;29;20319;-84
2023/05/28 01:02:39;;;;;;;12.77;11.43;;;;;;;13.61;100.00;95430.13;4913514;29;20027;-83
2023/05/28 01:05:05;;;;;;;12.52;11.25;;;;;;;13.73;100.00;95439.09;4915865;29;20122;-82
2023/05/28 01:07:31;;;;;;;10.65;9.73;;;;;;;13.72;100.00;95442.69;4879297;29;20142;-80
2023/05/28 01:09:56;;;;;;;10.10;9.13;;;;;;;13.72;100.00;95434.88;4877426;29;20027;-80
2023/05/28 01:12:23;;;;;;;16.42;11.60;;;;;;;13.78;100.00;95439.38;4916501;29;20101;-82
2023/05/28 01:14:49;;;;;;;13.20;12.05;;;;;;;13.66;100.00;95420.78;4925223;29;20021;-84
2023/05/28 01:17:15;;;;;;;13.52;12.05;;;;;;;13.80;100.00;95450.44;4918807;29;20032;-83
2023/05/28 01:19:42;;;;;;;11.50;10.70;;;;;;;13.86;100.00;95457.53;4891716;29;20813;-84
2023/05/28 01:22:08;;;;;;;13.90;12.60;;;;;;;13.82;100.00;95451.06;4891146;29;20040;-82
2023/05/28 01:24:39;;;;;;;14.32;13.13;;;;;;;13.85;100.00;95453.28;4890442;29;20038;-80
2023/05/28 01:27:05;;;;;;;13.27;11.93;;;;;;;13.82;100.00;95429.41;4876174;29;20042;-81
2023/05/28 01:29:31;;;;;;;14.68;13.18;;;;;;;13.92;100.00;95441.19;4890466;29;20123;-81
2023/05/28 01:31:56;;;;;;;14.40;13.15;;;;;;;13.89;100.00;95425.91;4892208;29;20139;-80
2023/05/28 01:34:23;;;;;;;15.13;13.52;;;;;;;13.91;100.00;95413.53;4878836;29;20459;-80
2023/05/28 01:36:56;;;;;;;16.60;14.60;;;;;;;13.90;100.00;95411.88;4892548;29;20474;-83
2023/05/28 01:39:24;;;;;;;14.40;12.90;;;;;;;13.92;100.00;95406.53;4891158;29;20048;-81
2023/05/28 01:41:50;;;;;;;15.68;14.02;;;;;;;13.90;100.00;95409.28;4906933;29;20032;-81
2023/05/28 01:44:18;;;;;;;15.68;14.27;;;;;;;13.86;100.00;95413.25;4906448;29;20039;-80
2023/05/28 01:46:45;;;;;;;15.63;14.10;;;;;;;13.90;100.00;95411.88;4889551;29;20028;-81
2023/05/28 01:49:11;;;;;;;15.55;14.25;;;;;;;13.92;100.00;95420.34;4890460;29;20128;-80
2023/05/28 01:51:37;;;;;;;14.90;13.63;;;;;;;13.96;100.00;95420.81;4890014;29;20119;-79
2023/05/28 01:54:02;;;;;;;16.25;14.82;;;;;;;13.88;100.00;95400.84;4907338;29;20043;-80
2023/05/28 01:56:28;;;;;;;14.98;13.57;;;;;;;13.91;100.00;95397.91;4907609;29;20028;-81
2023/05/28 01:58:53;;;;;;;19.40;17.27;;;;;;;13.88;100.00;95382.63;4890107;29;20036;-84
2023/05/28 02:01:27;;;;;;;16.80;15.40;;;;;;;13.91;100.00;95400.50;4877764;29;20032;-79
2023/05/28 02:03:53;;;;;;;20.73;18.75;;;;;;;13.87;100.00;95395.84;4891088;29;20036;-81
2023/05/28 02:06:19;;;;;;;14.48;13.13;;;;;;;13.92;100.00;95419.53;4913454;29;20038;-81
2023/05/28 02:08:45;;;;;;;15.43;14.02;;;;;;;13.90;100.00;95409.28;4889759;29;20035;-84
2023/05/28 02:11:10;;;;;;;19.38;17.27;;;;;;;13.88;100.00;95416.47;4890503;29;20055;-81
2023/05/28 02:13:35;;;;;;;15.93;14.55;;;;;;;13.89;100.00;95420.72;4906303;29;20063;-80
2023/05/28 02:16:01;;;;;;;16.20;14.70;;;;;;;13.87;100.00;95427.88;4894452;29;20028;-80
2023/05/28 02:18:26;;;;;;;18.38;16.80;;;;;;;13.84;100.00;95430.06;4876568;29;20847;-81
2023/05/28 02:20:52;;;;;;;17.45;15.75;;;;;;;13.81;100.00;95431.19;4874110;29;20036;-81
2023/05/28 02:23:17;;;;;;;18.13;16.25;;;;;;;13.72;100.00;95442.69;4891742;29;20498;-81
2023/05/28 02:25:43;;;;;;;19.38;17.35;;;;;;;13.79;100.00;95455.81;4890788;29;20039;-81
2023/05/28 02:28:09;;;;;;;18.20;16.50;;;;;;;13.78;100.00;95452.38;4892359;29;20063;-80
2023/05/28 02:30:34;;;;;;;17.30;15.90;;;;;;;13.87;100.00;95458.34;4906367;29;20082;-83
2023/05/28 02:33:00;;;;;;;16.30;15.00;;;;;;;13.88;100.00;95455.53;4906777;29;20421;-81
2023/05/28 02:35:26;;;;;;;17.65;15.95;;;;;;;13.90;100.00;95448.34;4895290;29;20028;-81
2023/05/28 02:37:51;;;;;;;17.52;16.13;;;;;;;13.97;100.00;95458.84;4882614;29;20041;-81
2023/05/28 02:40:17;;;;;;;22.75;17.75;;;;;;;13.81;100.00;95452.03;4859428;29;20036;-80
2023/05/28 02:42:43;;;;;;;17.23;15.75;;;;;;;13.63;100.00;95462.78;4892238;29;20059;-80
2023/05/28 02:45:09;;;;;;;17.30;15.52;;;;;;;13.74;100.00;95477.19;4874738;29;20096;-80
2023/05/28 02:47:34;;;;;;;19.08;17.35;;;;;;;13.83;100.00;95485.72;4874217;29;20054;-80
2023/05/28 02:50:00;;;;;;;16.50;14.95;;;;;;;13.84;100.00;95469.91;4888338;29;20027;-79
2023/05/28 02:52:25;;;;;;;18.08;16.48;;;;;;;13.91;100.00;95483.00;4869495;29;20039;-81
2023/05/28 02:54:51;;;;;;;19.45;17.75;;;;;;;13.92;100.00;95475.03;4870423;29;20037;-80
2023/05/28 02:57:16;;;;;;;19.88;17.88;;;;;;;13.88;100.00;95492.00;4887671;29;20037;-79
2023/05/28 02:59:42;;;;;;;22.35;18.70;;;;;;;13.85;100.00;95492.34;4888075;29;20487;-81
2023/05/28 03:02:07;;;;;;;19.08;17.27;;;;;;;13.90;100.00;95492.63;4880996;29;20041;-82
2023/05/28 03:04:35;;;;;;;22.52;20.20;;;;;;;13.97;100.00;95505.75;4883191;29;20053;-82
2023/05/28 03:07:01;;;;;;;21.83;19.33;;;;;;;14.01;100.00;95510.44;4873714;29;20028;-81
2023/05/28 03:09:27;;;;;;;22.73;18.75;;;;;;;13.99;100.00;95509.00;4870762;29;20151;-81
2023/05/28 03:11:52;;;;;;;20.17;18.58;;;;;;;14.03;100.00;95502.44;4855643;29;20123;-81
2023/05/28 03:14:17;;;;;;;21.30;19.05;;;;;;;14.05;100.00;95501.28;4857143;29;20040;-78
2023/05/28 03:16:44;;;;;;;18.98;17.27;;;;;;;14.01;100.00;95494.81;4869067;29;20029;-80
2023/05/28 03:19:15;;;;;;;19.70;17.70;;;;;;;14.02;100.00;95487.81;4895078;29;20119;-80
2023/05/28 03:31:45;;;;;;;18.60;16.38;;;;;;;14.08;100.00;95455.81;4971296;23;20550;-84
2023/05/28 03:47:06;;;;;;;20.77;18.88;;;;;;;14.15;100.00;95483.59;5100905;23;20063;-81
2023/05/28 03:52:10;;;;;;;18.67;16.95;;;;;;;14.19;100.00;95474.41;5760041;23;20060;-79
2023/05/28 04:09:16;;;;;;;14.88;13.57;;;;;;;14.35;100.00;95408.31;4982149;23;20066;-85
2023/05/28 04:12:15;;;;;;;13.38;12.18;;;;;;;14.31;100.00;95398.41;4887981;29;20041;-91
2023/05/28 04:14:41;;;;;;;12.63;11.63;;;;;;;14.32;100.00;95387.00;4906350;29;20063;-87
2023/05/28 04:17:08;;;;;;;13.07;12.00;;;;;;;14.42;100.00;95400.56;4906969;29;20032;-85
2023/05/28 04:20:26;;;;;;;13.50;12.27;;;;;;;14.44;100.00;95403.81;4889990;29;20091;-85
2023/05/28 04:22:52;;;;;;;12.40;11.38;;;;;;;14.36;100.00;95390.88;4917143;29;20056;-80
2023/05/28 04:25:18;;;;;;;13.77;12.77;;;;;;;14.43;100.00;95391.75;4905763;29;20032;-89
2023/05/28 04:27:45;;;;;;;12.40;11.32;;;;;;;14.50;100.00;95384.81;4903477;29;20590;-89
2023/05/28 04:30:11;;;;;;;11.15;10.35;;;;;;;14.51;100.00;95370.81;4889298;29;20028;-88
2023/05/28 04:32:39;;;;;;;11.70;10.38;;;;;;;14.40;100.00;95340.00;4904727;29;20129;-87
2023/05/28 04:35:17;;;;;;;11.65;10.75;;;;;;;14.49;100.00;95325.84;4908459;29;20114;-91
2023/05/28 04:37:50;;;;;;;16.77;13.07;;;;;;;14.55;100.00;95312.09;4915668;29;20024;-87
2023/05/28 04:43:11;;;;;;;24.60;17.63;;;;;;;14.55;100.00;95281.63;4975508;23;20060;-81
2023/05/28 04:53:39;;;;;;;11.95;11.13;;;;;;;14.62;100.00;95266.84;4886840;23;20466;-89
2023/05/28 04:56:05;;;;;;;12.57;11.52;;;;;;;14.57;100.00;95261.41;4893336;29;20150;-90
2023/05/28 04:58:31;;;;;;;14.48;12.98;;;;;;;14.60;100.00;95255.00;4893737;29;20451;-90
2023/05/28 05:00:57;;;;;;;14.02;12.73;;;;;;;14.67;100.00;95274.13;4889311;29;20068;-88
2023/05/28 05:03:23;;;;;;;13.90;12.60;;;;;;;14.67;100.00;95267.06;4876949;29;20426;-87
2023/05/28 05:05:48;;;;;;;13.90;12.80;;;;;;;14.76;100.00;95280.81;4892304;29;20055;-88
2023/05/28 05:08:13;;;;;;;14.23;12.82;;;;;;;14.74;100.00;95299.22;4879475;29;20038;-81
2023/05/28 05:13:42;;;;;;;10.93;10.13;;;;;;;14.71;100.00;95345.72;4908152;29;20128;-78
2023/05/28 05:16:09;;;;;;;11.25;10.45;;;;;;;14.62;100.00;95323.38;4908815;29;20119;-86
2023/05/28 05:18:34;;;;;;;12.40;11.50;;;;;;;14.71;100.00;95341.31;4892591;29;20112;-87
2023/05/28 05:21:00;;;;;;;11.05;10.02;;;;;;;14.80;100.00;95326.38;4894088;29;20645;-92
2023/05/28 05:23:28;;;;;;;11.10;10.30;;;;;;;14.78;100.00;95315.31;4912557;29;20020;-93
2023/05/28 05:25:54;;;;;;;9.57;8.57;;;;;;;14.84;100.00;95293.69;4908399;29;20046;-87
2023/05/28 05:28:19;;;;;;;11.27;10.15;;;;;;;14.82;100.00;95282.66;4910981;29;20444;-94
2023/05/28 05:30:49;;;;;;;11.80;10.80;;;;;;;14.84;100.00;95287.66;4893381;29;20024;-90
2023/05/28 05:36:09;;;;;;;14.90;13.23;;;;;;;14.86;100.00;95346.50;4978679;23;20493;-88
2023/05/28 05:38:35;;;;;;;20.55;17.73;;;;;;;14.92;100.00;95324.06;4877101;29;20034;-91
2023/05/28 05:41:01;;;;;;;22.60;19.30;;;;;;;14.88;100.00;95278.47;4893012;29;20028;-89
2023/05/28 05:43:26;;;;;;;15.35;14.15;;;;;;;14.86;100.00;95247.38;4872622;29;20040;-89
2023/05/28 05:45:51;;;;;;;18.02;16.13;;;;;;;14.96;100.00;95273.13;4880948;29;20411;-88
2023/05/28 05:48:17;;;;;;;16.58;14.95;;;;;;;14.98;100.00;95303.25;4874826;29;20096;-88
2023/05/28 05:50:58;;;;;;;16.42;14.95;;;;;;;14.99;100.00;95338.78;4889736;29;20031;-87
2023/05/28 05:53:24;;;;;;;13.77;12.63;;;;;;;15.02;100.00;95353.25;4890858;29;20071;-88
2023/05/28 05:55:49;;;;;;;14.98;12.38;;;;;;;15.02;100.00;95374.94;4889532;29;20028;-87
2023/05/28 05:58:15;;;;;;;13.70;12.45;;;;;;;14.87;100.00;95374.16;4888370;29;20035;-87
2023/05/28 06:00:40;;;;;;;12.50;11.43;;;;;;;14.95;100.00;95394.13;4873993;29;20032;-88
2023/05/28 06:03:06;;;;;;;11.93;10.77;;;;;;;15.07;100.00;95406.47;4888632;29;20032;-88
2023/05/28 06:05:35;;;;;;;11.25;10.38;;;;;;;15.04;100.00;95383.38;4890766;29;20361;-92
2023/05/28 06:08:02;;;;;;;10.57;9.73;;;;;;;15.13;100.00;95360.56;4889231;29;20468;-87
2023/05/28 06:10:29;;;;;;;11.95;10.80;;;;;;;15.24;100.00;95353.03;4907233;29;20040;-91
2023/05/28 06:12:54;;;;;;;10.93;10.02;;;;;;;15.23;100.00;95330.53;4890108;29;20078;-89
2023/05/28 06:15:21;;;;;;;10.98;10.18;;;;;;;15.26;100.00;95322.31;4900625;29;20028;-90
2023/05/28 06:17:47;;;;;;;11.20;10.10;;;;;;;15.18;100.00;95304.22;4907490;29;20052;-89
2023/05/28 06:20:13;;;;;;;11.02;10.20;;;;;;;15.21;100.00;95309.06;4906003;29;20058;-88
2023/05/28 06:22:39;;;;;;;10.07;9.27;;;;;;;15.18;100.00;95291.16;4909534;29;20047;-87
2023/05/28 06:25:06;;;;;;;10.65;9.30;;;;;;;15.22;100.00;95287.16;4890432;29;20052;-88
2023/05/28 06:27:32;;;;;;;10.55;9.75;;;;;;;15.20;100.00;95307.44;4890603;29;20160;-88
2023/05/28 06:29:57;;;;;;;9.60;8.80;;;;;;;15.19;100.00;95331.09;4906512;29;20521;-92
2023/05/28 06:32:23;;;;;;;9.73;8.82;;;;;;;15.17;100.00;95333.09;4908253;29;20059;-89
2023/05/28 06:34:48;;;;;;;10.13;9.38;;;;;;;15.19;100.00;95315.44;4908233;29;20052;-88
2023/05/28 06:37:13;;;;;;;11.40;10.07;;;;;;;15.25;100.00;95309.47;4907387;29;20028;-90
2023/05/28 06:39:39;;;;;;;9.65;8.95;;;;;;;15.36;100.00;95297.69;4891797;29;20028;-90
2023/05/28 06:42:06;;;;;;;8.90;8.30;;;;;;;15.60;100.00;95281.59;4886521;29;20031;-91
2023/05/28 06:44:32;;;;;;;8.32;7.53;;;;;;;15.87;100.00;95231.06;4893410;29;20033;-88
2023/05/28 06:46:58;;;;;;;8.75;8.15;;;;;;;16.03;100.00;95198.56;4890714;29;20534;-88
2023/05/28 06:49:23;;;;;;;9.07;8.30;;;;;;;16.16;100.00;95201.19;4907372;29;20046;-88
2023/05/28 06:51:49;;;;;;;9.15;8.35;;;;;;;16.18;100.00;95178.31;4908715;29;20036;-90
2023/05/28 06:54:14;;;;;;;8.20;7.50;;;;;;;16.39;100.00;95145.94;4892766;29;20036;-89
2023/05/28 06:56:40;;;;;;;7.35;6.78;;;;;;;16.64;100.00;95112.94;4908221;29;20039;-89
2023/05/28 06:59:05;;;;;;;6.28;5.68;;;;;;;16.72;100.00;95079.53;4891398;29;20127;-91
2023/05/28 07:01:31;;;;;;;4.90;4.50;;;;;;;16.76;100.00;95017.16;4887949;29;20028;-90
2023/05/28 07:03:56;;;;;;;4.88;4.57;;;;;;;17.11;100.00;95007.94;4888484;29;20095;-91
2023/05/28 07:06:22;;;;;;;4.25;3.95;;;;;;;17.79;100.00;94969.63;4908293;29;20028;-90
2023/05/28 07:08:48;;;;;;;3.90;3.60;;;;;;;17.39;100.00;94910.69;4908196;29;20024;-89
2023/05/28 07:11:13;;;;;;;4.30;4.00;;;;;;;17.44;100.00;94904.78;4909853;29;20028;-90
2023/05/28 07:13:40;;;;;;;4.22;3.90;;;;;;;17.32;100.00;94871.47;4908979;29;20028;-92
2023/05/28 07:16:08;;;;;;;4.97;4.57;;;;;;;17.44;100.00;94900.38;4891841;29;20124;-87
2023/05/28 07:18:33;;;;;;;5.93;4.67;;;;;;;17.71;100.00;94880.03;4876270;29;20035;-84
2023/05/28 07:20:59;;;;;;;5.30;4.80;;;;;;;17.62;100.00;94878.69;4906345;29;20307;-82
2023/05/28 07:23:25;;;;;;;3.10;2.75;;;;;;;17.56;100.00;94856.00;4888526;29;20028;-82
2023/05/28 07:25:50;;;;;;;3.97;3.60;;;;;;;17.41;100.00;94872.00;4903254;29;20038;-85
2023/05/28 07:28:16;;;;;;;3.55;3.25;;;;;;;17.50;100.00;94883.00;4887825;29;20421;-83
2023/05/28 07:30:42;;;;;;;4.30;3.55;;;;;;;17.19;100.00;94866.34;4904171;29;20025;-84
2023/05/28 07:33:07;;;;;;;5.68;3.17;;;;;;;17.14;100.00;94858.34;4905340;29;20549;-88
2023/05/28 07:35:33;;;;;;;5.18;3.38;;;;;;;17.23;100.00;94823.00;4904167;29;20044;-82
2023/05/28 07:37:59;;;;;;;4.80;4.50;;;;;;;17.38;100.00;94857.50;4904807;29;20446;-84
2023/05/28 07:40:24;;;;;;;4.20;3.80;;;;;;;17.37;100.00;94884.72;4887572;29;20032;-84
2023/05/28 07:42:50;;;;;;;6.18;3.40;;;;;;;17.30;100.00;94876.13;4904270;29;20440;-82
2023/05/28 07:45:15;;;;;;;3.30;3.00;;;;;;;17.48;100.00;94822.19;4888415;29;20056;-79
2023/05/28 07:47:41;;;;;;;4.10;3.78;;;;;;;17.56;100.00;94803.59;4903747;29;20472;-81
2023/05/28 07:50:07;;;;;;;3.72;3.45;;;;;;;17.59;100.00;94798.75;4905205;29;20032;-86
2023/05/28 07:52:33;;;;;;;4.05;3.75;;;;;;;17.75;100.00;94815.69;4903484;29;20032;-77
2023/05/28 07:54:58;;;;;;;3.25;2.95;;;;;;;17.63;100.00;94791.22;4905259;29;20088;-83
2023/05/28 07:57:27;;;;;;;4.47;4.00;;;;;;;17.60;100.00;94796.91;4904348;29;20036;-81
2023/05/28 07:59:52;;;;;;;4.55;3.97;;;;;;;17.72;100.00;94816.13;4904172;29;20042;-77
2023/05/28 08:02:18;;;;;;;4.32;4.03;;;;;;;17.50;100.00;94822.78;4887676;29;20028;-85
2023/05/28 08:04:43;;;;;;;4.25;3.85;;;;;;;17.62;100.00;94818.44;4886762;29;20123;-82
2023/05/28 08:07:12;;;;;;;3.95;3.65;;;;;;;17.39;100.00;94803.34;4903437;29;20395;-88
2023/05/28 08:09:38;;;;;;;3.95;3.60;;;;;;;17.48;100.00;94794.16;4903131;29;20149;-78
2023/05/28 08:12:04;;;;;;;5.53;3.78;;;;;;;17.59;100.00;94793.50;4904463;29;20407;-80
2023/05/28 08:14:30;;;;;;;4.15;3.75;;;;;;;17.62;100.00;94794.88;4886655;29;20057;-83
2023/05/28 08:16:55;;;;;;;4.80;3.17;;;;;;;17.55;100.00;94796.72;4887514;29;20479;-82
2023/05/28 08:19:21;;;;;;;3.15;2.95;;;;;;;17.59;100.00;94790.06;4903654;29;20359;-79
2023/05/28 08:21:46;;;;;;;3.63;3.33;;;;;;;17.41;100.00;94780.34;4883646;29;20131;-85
2023/05/28 08:24:11;;;;;;;3.90;3.42;;;;;;;17.59;100.00;94792.69;4903270;29;20043;-78
2023/05/28 08:26:37;;;;;;;3.75;3.45;;;;;;;17.71;100.00;94777.84;4886081;29;20036;-81
2023/05/28 08:29:04;;;;;;;3.88;3.40;;;;;;;17.63;100.00;94778.94;4887406;29;20499;-87
2023/05/28 08:31:33;;;;;;;3.72;3.50;;;;;;;17.51;100.00;94770.16;4902067;29;20040;-84
2023/05/28 08:33:58;;;;;;;3.33;3.03;;;;;;;17.55;100.00;94755.66;4904275;29;20483;-78
2023/05/28 08:36:24;;;;;;;4.32;3.38;;;;;;;17.76;100.00;94772.75;4887099;29;20045;-83
2023/05/28 08:38:50;;;;;;;4.32;3.83;;;;;;;18.03;100.00;94755.69;4885871;29;20016;-82
2023/05/28 08:41:15;;;;;;;3.83;3.40;;;;;;;18.94;100.00;94737.81;4896668;29;20126;-83
2023/05/28 08:43:42;;;;;;;3.80;3.45;;;;;;;19.45;100.00;94707.47;4887764;29;20099;-86
2023/05/28 08:46:07;;;;;;;5.22;3.55;;;;;;;20.52;100.00;94686.63;4904834;29;20032;-79
2023/05/28 08:48:34;;;;;;;4.00;3.03;;;;;;;20.05;100.00;94654.44;4903532;29;20027;-86
2023/05/28 08:51:00;;;;;;;4.00;3.70;;;;;;;20.03;100.00;94678.38;4904456;29;20122;-80
2023/05/28 08:53:30;;;;;;;4.55;3.63;;;;;;;19.80;100.00;94679.25;4887481;29;20032;-78
2023/05/28 08:55:56;;;;;;;4.97;3.63;;;;;;;19.57;100.00;94676.69;4888114;29;20119;-82
2023/05/28 08:58:21;;;;;;;4.80;4.32;;;;;;;19.46;100.00;94670.44;4881770;29;20139;-79
2023/05/28 09:00:47;;;;;;;4.60;4.05;;;;;;;19.80;100.00;94683.72;4887100;29;20039;-79
2023/05/28 09:03:13;;;;;;;4.93;4.25;;;;;;;20.25;100.00;94673.22;4888903;29;20028;-87
2023/05/28 09:05:38;;;;;;;3.90;3.60;;;;;;;19.83;100.00;94655.13;4905245;29;20024;-84
2023/05/28 09:08:08;;;;;;;4.18;3.88;;;;;;;19.86;100.00;94661.75;4905843;29;20039;-78
2023/05/28 09:10:38;;;;;;;4.05;3.63;;;;;;;19.66;100.00;94679.75;4899548;29;20032;-84
2023/05/28 09:13:04;;;;;;;4.10;3.30;;;;;;;19.60;100.00;94670.19;4888698;29;20086;-84
2023/05/28 09:15:30;;;;;;;4.13;3.03;;;;;;;19.49;100.00;94671.03;4905578;29;20047;-87
2023/05/28 09:17:58;;;;;;;3.58;2.88;;;;;;;19.23;100.00;94672.28;4888096;29;20024;-85
2023/05/28 09:20:23;;;;;;;2.85;2.55;;;;;;;19.40;100.00;94670.56;4888573;29;20106;-81
2023/05/28 09:23:02;;;;;;;3.70;3.40;;;;;;;18.92;100.00;94670.81;4906773;29;20028;-83
2023/05/28 09:25:28;;;;;;;;;;;;;;;18.55;100.00;94682.56;4892492;29;20040;-84
2023/05/28 09:27:57;;;;;;;4.25;3.50;;;;;;;18.37;100.00;94692.06;4889402;29;19915;-80
2023/05/28 09:30:23;;;;;;;3.50;3.20;;;;;;;18.09;100.00;94706.81;4890650;29;20036;-85
2023/05/28 09:33:03;;;;;;;3.47;3.20;;;;;;;17.89;100.00;94725.41;4907483;29;20498;-85
2023/05/28 09:35:29;;;;;;;3.83;3.53;;;;;;;17.57;100.00;94737.09;4890635;29;20044;-80
2023/05/28 09:38:08;;;;;;;3.20;3.00;;;;;;;17.35;100.00;94736.69;4889359;29;20043;-83
2023/05/28 09:40:39;;;;;;;3.17;2.95;;;;;;;17.11;100.00;94738.38;4888645;29;20032;-83
2023/05/28 09:43:05;;;;;;;4.55;3.13;;;;;;;17.27;100.00;94753.47;4903766;29;20036;-78
2023/05/28 09:45:31;;;;;;;4.20;3.58;;;;;;;17.14;100.00;94769.34;4885563;29;20047;-84
2023/05/28 09:47:56;;;;;;;7.38;3.58;;;;;;;17.10;100.00;94773.41;4889716;29;20511;-84
2023/05/28 09:50:22;;;;;;;4.40;4.00;;;;;;;17.19;100.00;94793.03;4872525;29;20032;-81
2023/05/28 09:52:48;;;;;;;3.42;3.22;;;;;;;17.42;100.00;94796.84;4905365;29;20036;-88
2023/05/28 09:55:20;;;;;;;4.20;3.80;;;;;;;17.95;100.00;94807.63;4906296;29;20028;-88
2023/05/28 09:58:02;;;;;;;5.05;3.55;;;;;;;18.32;100.00;94798.66;4905402;29;20458;-88
2023/05/28 10:01:00;;;;;;;4.55;4.00;;;;;;;18.39;100.00;94781.84;4889887;29;20076;-89
2023/05/28 10:03:47;;;;;;;4.10;3.70;;;;;;;18.28;100.00;94777.34;4875753;29;20135;-89
2023/05/28 10:06:22;;;;;;;4.63;4.13;;;;;;;18.02;100.00;94756.69;4870910;29;20032;-85
2023/05/28 10:08:51;;;;;;;3.83;3.53;;;;;;;17.86;100.00;94762.53;4889363;29;20039;-81
2023/05/28 10:11:19;;;;;;;;;;;;;;;17.88;100.00;94781.50;4889975;29;20873;-85
2023/05/28 10:13:45;;;;;;;7.32;4.57;;;;;;;17.55;100.00;94767.91;4888385;29;19930;-87
2023/05/28 10:16:11;;;;;;;4.40;4.07;;;;;;;17.53;100.00;94762.88;4889167;29;20133;-84
2023/05/28 10:18:37;;;;;;;4.70;4.30;;;;;;;17.77;100.00;94783.00;4904826;29;20112;-81
2023/05/28 10:21:02;;;;;;;4.65;4.35;;;;;;;17.84;100.00;94761.97;4904942;29;20430;-85
2023/05/28 10:23:28;;;;;;;5.35;4.65;;;;;;;17.79;100.00;94764.44;4889436;29;20039;-83
2023/05/28 10:25:54;;;;;;;5.40;5.00;;;;;;;17.85;100.00;94771.44;4879860;29;20058;-85
2023/05/28 10:28:21;;;;;;;5.30;4.90;;;;;;;17.81;100.00;94793.84;4888765;29;20042;-82
2023/05/28 10:31:00;;;;;;;5.15;4.68;;;;;;;17.78;100.00;94770.72;4889379;29;20051;-86
2023/05/28 10:33:25;;;;;;;7.20;4.60;;;;;;;17.68;100.00;94754.72;4887319;29;20028;-83
2023/05/28 10:35:54;;;;;;;5.03;4.63;;;;;;;17.84;100.00;94754.91;4878887;29;20048;-84
2023/05/28 10:38:20;;;;;;;5.60;5.10;;;;;;;17.95;100.00;94755.97;4864216;29;20061;-79
2023/05/28 10:40:46;;;;;;;5.18;4.78;;;;;;;17.83;100.00;94734.97;4877380;29;20037;-84
2023/05/28 10:43:39;;;;;;;4.85;4.45;;;;;;;17.93;100.00;94737.06;4867307;29;20136;-82
2023/05/28 10:46:15;;;;;;;5.43;5.03;;;;;;;17.85;100.00;94742.63;4868123;29;20033;-81
2023/05/28 10:49:16;;;;;;;5.68;5.28;;;;;;;18.26;100.00;94732.19;4868543;29;20053;-88
2023/05/28 10:52:01;;;;;;;6.20;5.70;;;;;;;18.82;100.00;94725.69;4868403;29;20044;-81
2023/05/28 10:54:30;;;;;;;5.75;5.32;;;;;;;19.05;100.00;94690.78;4868188;29;20033;-85
2023/05/28 10:57:17;;;;;;;6.13;5.53;;;;;;;19.38;100.00;94694.41;4868522;29;20554;-79
2023/05/28 10:59:46;;;;;;;7.95;5.20;;;;;;;19.14;100.00;94687.59;4868477;29;20041;-78
2023/05/28 11:02:15;;;;;;;7.88;5.88;;;;;;;19.15;100.00;94659.50;4867834;29;20514;-77
2023/05/28 11:04:40;;;;;;;;;;;;;;;19.15;100.00;94659.50;4864453;29;20476;-81
2023/05/28 11:07:06;;;;;;;5.97;5.13;;;;;;;19.15;100.00;94657.69;4866054;29;19934;-85
2023/05/28 11:09:32;;;;;;;5.95;5.47;;;;;;;18.93;100.00;94638.31;4867337;29;20041;-76
2023/05/28 11:12:01;;;;;;;7.85;5.45;;;;;;;18.87;100.00;94663.66;4868034;29;20029;-80
2023/05/28 11:14:37;;;;;;;5.88;5.47;;;;;;;19.29;100.00;94660.88;4864067;29;20042;-87
2023/05/28 11:17:08;;;;;;;6.57;5.97;;;;;;;19.01;100.00;94658.94;4862427;29;20048;-79
2023/05/28 11:19:44;;;;;;;6.55;6.00;;;;;;;18.91;100.00;94662.16;4865614;29;20037;-79
2023/05/28 11:22:11;;;;;;;7.13;5.78;;;;;;;18.86;100.00;94664.66;4867209;29;20630;-87
2023/05/28 11:25:00;;;;;;;6.43;5.82;;;;;;;18.91;100.00;94667.38;4866040;29;20828;-89
2023/05/28 11:27:27;;;;;;;6.00;5.53;;;;;;;19.00;100.00;94652.13;4866766;29;20024;-82
2023/05/28 11:29:57;;;;;;;6.50;5.97;;;;;;;18.93;100.00;94667.97;4846800;29;20053;-80
2023/05/28 11:32:23;;;;;;;6.60;5.97;;;;;;;18.77;100.00;94667.88;4866195;29;20036;-82
2023/05/28 11:34:50;;;;;;;6.80;6.22;;;;;;;18.69;100.00;94658.50;4870327;29;20045;-78
2023/05/28 11:37:16;;;;;;;6.85;6.28;;;;;;;18.93;100.00;94664.56;4865131;29;20040;-82
2023/05/28 11:39:51;;;;;;;6.82;6.22;;;;;;;19.07;100.00;94670.38;4866827;29;20017;-82
2023/05/28 11:42:19;;;;;;;6.45;5.93;;;;;;;18.46;100.00;94661.09;4856787;29;20058;-86
2023/05/28 11:44:48;;;;;;;5.75;5.35;;;;;;;18.64;100.00;94671.50;4863209;29;20029;-80
2023/05/28 11:47:13;;;;;;;;;;;;;;;18.65;100.00;94667.06;4866895;29;20407;-83
2023/05/28 11:49:40;;;;;;;6.05;5.55;;;;;;;18.18;100.00;94635.47;4867688;29;19922;-87
2023/05/28 11:52:09;;;;;;;6.53;5.93;;;;;;;18.48;100.00;94645.09;4861949;29;20025;-92
2023/05/28 11:54:34;;;;;;;;;;;;;;;18.83;100.00;94669.56;4859560;29;20032;-86
2023/05/28 11:57:02;;;;;;;6.78;6.28;;;;;;;18.61;100.00;94645.72;4865999;29;19975;-84
2023/05/28 11:59:28;;;;;;;6.38;5.78;;;;;;;18.71;100.00;94682.69;4865601;29;20060;-83
2023/05/28 12:01:54;;;;;;;6.65;6.07;;;;;;;18.82;100.00;94681.88;4867870;29;20236;-80
2023/05/28 12:04:24;;;;;;;7.28;6.68;;;;;;;18.94;100.00;94681.91;4864438;29;20411;-78
2023/05/28 12:06:54;;;;;;;7.60;7.03;;;;;;;19.00;100.00;94675.75;4865834;29;20068;-83
2023/05/28 12:09:19;;;;;;;6.95;6.35;;;;;;;19.11;100.00;94664.41;4867181;29;20136;-80
2023/05/28 12:12:09;;;;;;;6.57;6.10;;;;;;;19.42;100.00;94665.91;4867395;29;20043;-78
2023/05/28 12:14:35;;;;;;;6.03;5.50;;;;;;;19.28;100.00;94662.69;4865902;29;20132;-81
2023/05/28 12:17:08;;;;;;;6.43;5.03;;;;;;;18.97;100.00;94647.31;4867049;29;20521;-80
2023/05/28 12:19:35;;;;;;;5.53;5.13;;;;;;;19.21;100.00;94648.06;4863028;29;20415;-83